createdAt,value
2019-04-22T00:02:13.517Z,38.55
2019-04-22T00:05:13.121Z,38.70
2019-04-22T00:08:19.719Z,39.08
2019-04-22T00:11:12.873Z,39.39
2019-04-22T00:13:57.065Z,39.62
2019-04-22T00:19:45.585Z,39.76
2019-04-22T00:22:27.764Z,39.81
2019-04-22T00:25:22.494Z,39.96
2019-04-22T00:28:08.450Z,40.27
2019-04-22T00:31:13.126Z,40.05
2019-04-22T00:34:02.291Z,40.23
2019-04-22T00:36:48.269Z,40.70
2019-04-22T00:39:44.701Z,41.04
2019-04-22T00:42:28.866Z,40.86
2019-04-22T00:45:19.112Z,40.82
2019-04-22T00:48:17.727Z,40.73
2019-04-22T00:53:48.834Z,40.76
2019-04-22T00:56:35.870Z,41.33
2019-04-22T00:59:29.812Z,41.30
2019-04-22T01:02:20.362Z,40.99
2019-04-22T01:05:19.753Z,41.67
2019-04-22T01:08:09.772Z,41.24
2019-04-22T01:10:57.026Z,41.11
2019-04-22T01:13:38.721Z,41.42
2019-04-22T01:19:26.007Z,41.60
2019-04-22T01:22:17.749Z,41.29
2019-04-22T01:25:02.432Z,41.40
2019-04-22T01:27:50.265Z,41.38
2019-04-22T01:30:35.019Z,41.36
2019-04-22T01:33:26.001Z,41.93
2019-04-22T01:36:28.817Z,42.30
2019-04-22T01:39:25.081Z,42.18
2019-04-22T01:42:14.136Z,42.32
2019-04-22T01:45:12.325Z,42.43
2019-04-22T01:47:55.151Z,42.20
2019-04-22T01:50:48.542Z,42.71
2019-04-22T01:53:33.424Z,43.25
2019-04-22T01:56:27.579Z,43.52
2019-04-22T01:59:08.587Z,43.81
2019-04-22T02:02:02.611Z,43.89
2019-04-22T02:05:01.244Z,43.62
2019-04-22T02:07:50.187Z,43.56
2019-04-22T02:10:44.162Z,43.64
2019-04-22T02:13:30.334Z,43.46
2019-04-22T02:16:23.098Z,43.91
2019-04-22T02:19:13.131Z,44.12
2019-04-22T02:21:56.178Z,44.52
2019-04-22T02:27:46.031Z,44.39
2019-04-22T02:30:45.078Z,44.70
2019-04-22T02:39:07.925Z,44.85
2019-04-22T02:42:00.736Z,44.78
2019-04-22T02:44:42.762Z,44.89
2019-04-22T02:47:49.978Z,44.82
2019-04-22T02:50:28.827Z,44.95
2019-04-22T02:53:29.777Z,45.05
2019-04-22T03:04:37.472Z,45.38
2019-04-22T03:07:55.828Z,45.53
2019-04-22T03:10:29.524Z,45.26
2019-04-22T03:13:21.293Z,45.98
2019-04-22T03:16:08.053Z,46.16
2019-04-22T03:21:38.831Z,45.76
2019-04-22T03:27:23.375Z,46.47
2019-04-22T03:36:06.411Z,46.01
2019-04-22T03:39:15.552Z,46.45
2019-04-22T03:41:50.084Z,46.08
2019-04-22T03:44:31.233Z,46.63
2019-04-22T03:47:31.488Z,46.94
2019-04-22T03:55:46.756Z,46.77
2019-04-22T03:58:45.482Z,46.54
2019-04-22T04:01:37.327Z,46.45
2019-04-22T04:07:22.417Z,46.46
2019-04-22T04:15:46.251Z,46.70
2019-04-22T04:18:39.650Z,46.63
2019-04-22T04:24:32.692Z,46.97
2019-04-22T04:27:35.005Z,46.45
2019-04-22T04:30:14.481Z,46.75
2019-04-22T04:35:43.414Z,47.10
2019-04-22T04:38:20.405Z,46.76
2019-04-22T04:41:19.529Z,47.09
2019-04-22T04:44:22.763Z,47.02
2019-04-22T04:47:07.585Z,47.03
2019-04-22T04:49:52.725Z,47.87
2019-04-22T04:53:02.326Z,48.14
2019-04-22T04:55:28.744Z,47.64
2019-04-22T04:58:27.365Z,47.99
2019-04-22T05:01:20.929Z,47.39
2019-04-22T05:04:16.885Z,47.03
2019-04-22T05:06:53.704Z,46.97
2019-04-22T05:09:38.554Z,46.99
2019-04-22T05:15:18.584Z,47.52
2019-04-22T05:18:14.721Z,47.18
2019-04-22T05:23:50.562Z,47.62
2019-04-22T05:26:39.691Z,46.80
2019-04-22T05:29:34.891Z,46.63
2019-04-22T05:32:33.853Z,46.81
2019-04-22T05:35:06.842Z,46.83
2019-04-22T05:37:56.609Z,46.80
2019-04-22T05:40:40.780Z,46.25
2019-04-22T05:46:28.298Z,47.05
2019-04-22T05:49:22.521Z,45.72
2019-04-22T05:52:10.850Z,46.12
2019-04-22T05:55:01.986Z,45.20
2019-04-22T05:57:51.255Z,44.66
2019-04-22T06:01:11.443Z,45.17
2019-04-22T06:03:35.219Z,44.71
2019-04-22T06:06:22.584Z,45.27
2019-04-22T06:09:18.833Z,44.06
2019-04-22T06:12:03.264Z,44.29
2019-04-22T06:15:01.485Z,43.71
2019-04-22T06:17:58.950Z,42.94
2019-04-22T06:20:49.763Z,42.08
2019-04-22T06:26:30.861Z,42.19
2019-04-22T06:29:16.396Z,40.93
2019-04-22T06:35:07.577Z,41.70
2019-04-22T06:37:59.527Z,41.62
2019-04-22T06:43:29.644Z,40.90
2019-04-22T06:46:18.723Z,40.73
2019-04-22T06:49:11.118Z,40.24
2019-04-22T06:52:06.020Z,40.20
2019-04-22T06:54:50.393Z,39.66
2019-04-22T06:57:36.377Z,39.30
2019-04-22T07:06:07.373Z,39.42
2019-04-22T07:09:20.719Z,39.16
2019-04-22T07:11:51.548Z,38.45
2019-04-22T07:14:35.309Z,38.39
2019-04-22T07:17:33.857Z,37.66
2019-04-22T07:20:17.356Z,37.58
2019-04-22T07:23:19.504Z,37.80
2019-04-22T07:26:00.242Z,37.19
2019-04-22T07:28:49.017Z,37.29
2019-04-22T07:31:45.393Z,36.56
2019-04-22T07:34:50.435Z,36.29
2019-04-22T07:37:29.593Z,36.59
2019-04-22T07:40:14.062Z,36.32
2019-04-22T07:43:05.460Z,36.31
2019-04-22T07:45:51.912Z,36.00
2019-04-22T07:51:32.965Z,35.79
2019-04-22T07:54:24.656Z,36.55
2019-04-22T08:00:04.078Z,36.27
2019-04-22T08:03:06.603Z,36.84
2019-04-22T08:05:51.880Z,35.30
2019-04-22T08:08:29.037Z,35.54
2019-04-22T08:11:42.326Z,34.46
2019-04-22T08:14:18.910Z,34.48
2019-04-22T08:17:19.282Z,35.00
2019-04-22T08:19:57.477Z,34.76
2019-04-22T08:22:42.652Z,34.39
2019-04-22T08:25:33.430Z,33.93
2019-04-22T08:31:14.898Z,33.91
2019-04-22T08:34:12.093Z,33.03
2019-04-22T08:37:24.039Z,33.97
2019-04-22T08:40:07.609Z,32.34
2019-04-22T08:42:50.222Z,33.10
2019-04-22T08:45:44.307Z,32.65
2019-04-22T08:48:15.058Z,32.19
2019-04-22T08:51:09.462Z,31.66
2019-04-22T08:53:59.801Z,32.13
2019-04-22T08:57:06.387Z,30.77
2019-04-22T08:59:37.223Z,30.77
2019-04-22T09:05:33.548Z,32.40
2019-04-22T09:10:59.395Z,32.43
2019-04-22T09:13:50.640Z,32.43
2019-04-22T09:16:45.928Z,31.53
2019-04-22T09:19:28.511Z,31.67
2019-04-22T09:22:22.101Z,31.62
2019-04-22T09:25:27.471Z,31.23
2019-04-22T09:27:59.326Z,31.59
2019-04-22T09:30:58.034Z,31.16
2019-04-22T09:33:38.176Z,30.79
2019-04-22T09:36:33.814Z,30.18
2019-04-22T09:39:30.243Z,30.20
2019-04-22T09:42:14.579Z,30.09
2019-04-22T09:45:05.696Z,30.20
2019-04-22T09:53:41.723Z,29.82
2019-04-22T09:59:16.288Z,29.56
2019-04-22T10:02:21.963Z,29.07
2019-04-22T10:05:03.435Z,29.52
2019-04-22T10:07:44.875Z,28.73
2019-04-22T10:10:46.561Z,29.35
2019-04-22T10:13:36.103Z,27.58
2019-04-22T10:16:27.674Z,27.09
2019-04-22T10:19:12.351Z,27.16
2019-04-22T10:22:07.320Z,26.79
2019-04-22T10:24:45.036Z,26.28
2019-04-22T10:27:39.809Z,25.58
2019-04-22T10:30:38.353Z,26.02
2019-04-22T10:33:14.929Z,25.54
2019-04-22T10:35:45.703Z,25.16
2019-04-22T10:38:34.622Z,25.44
2019-04-22T10:41:23.589Z,26.02
2019-04-22T10:44:13.062Z,25.62
2019-04-22T10:47:04.150Z,24.04
2019-04-22T10:49:54.137Z,25.38
2019-04-22T10:52:45.647Z,25.14
2019-04-22T10:55:35.097Z,24.71
2019-04-22T10:58:24.847Z,24.34
2019-04-22T11:01:13.744Z,25.33
2019-04-22T11:04:03.430Z,25.10
2019-04-22T11:06:57.631Z,24.27
2019-04-22T11:09:51.755Z,24.84
2019-04-22T11:12:35.531Z,24.68
2019-04-22T11:15:24.428Z,23.25
2019-04-22T11:18:13.548Z,24.61
2019-04-22T11:21:02.155Z,23.92
2019-04-22T11:23:52.384Z,22.70
2019-04-22T11:26:43.143Z,23.65
2019-04-22T11:29:32.532Z,24.42
2019-04-22T11:32:22.363Z,24.07
2019-04-22T11:35:11.958Z,23.69
2019-04-22T11:38:01.154Z,23.55
2019-04-22T11:40:52.502Z,23.90
2019-04-22T11:43:41.157Z,23.30
2019-04-22T11:46:31.520Z,23.19
2019-04-22T11:49:21.867Z,23.06
2019-04-22T11:52:13.248Z,24.49
2019-04-22T11:55:01.120Z,23.29
2019-04-22T11:57:51.940Z,22.97
2019-04-22T12:00:43.145Z,23.47
2019-04-22T12:03:31.706Z,23.79
2019-04-22T12:06:21.972Z,23.41
2019-04-22T12:09:12.636Z,23.13
2019-04-22T12:12:01.237Z,24.06
2019-04-22T12:14:50.243Z,23.82
2019-04-22T12:17:40.489Z,24.60
2019-04-22T12:20:29.859Z,23.75
2019-04-22T12:23:19.006Z,23.55
2019-04-22T12:26:12.841Z,23.37
2019-04-22T12:28:59.329Z,23.98
2019-04-22T12:31:49.433Z,23.02
2019-04-22T12:34:39.664Z,23.82
2019-04-22T12:37:35.608Z,23.36
2019-04-22T12:40:31.362Z,23.12
2019-04-22T12:43:12.272Z,22.86
2019-04-22T12:46:00.497Z,22.63
2019-04-22T12:48:49.910Z,22.80
2019-04-22T12:51:41.064Z,23.07
2019-04-22T12:54:31.015Z,23.30
2019-04-22T12:57:20.688Z,22.39
2019-04-22T13:00:13.487Z,22.30
2019-04-22T13:03:03.167Z,22.21
2019-04-22T13:05:52.070Z,21.45
2019-04-22T13:08:41.421Z,21.92
2019-04-22T13:11:34.071Z,22.12
2019-04-22T13:14:21.106Z,21.94
2019-04-22T13:17:10.335Z,21.85
2019-04-22T13:20:00.442Z,21.88
2019-04-22T13:22:50.585Z,21.60
2019-04-22T13:25:40.835Z,21.86
2019-04-22T13:28:31.475Z,21.92
2019-04-22T13:31:20.988Z,21.25
2019-04-22T13:34:23.939Z,20.88
2019-04-22T13:37:03.092Z,21.59
2019-04-22T13:39:52.879Z,21.76
2019-04-22T13:42:42.784Z,21.55
2019-04-22T13:45:31.895Z,20.88
2019-04-22T13:48:38.184Z,20.76
2019-04-22T13:57:09.089Z,19.89
2019-04-22T13:59:46.949Z,20.32
2019-04-22T14:03:02.434Z,20.46
2019-04-22T14:05:53.011Z,20.24
2019-04-22T14:08:43.101Z,19.67
2019-04-22T14:11:36.698Z,19.72
2019-04-22T14:14:22.130Z,20.48
2019-04-22T14:17:11.550Z,20.35
2019-04-22T14:20:00.579Z,19.66
2019-04-22T14:22:50.428Z,20.43
2019-04-22T14:25:40.832Z,19.38
2019-04-22T14:28:30.861Z,19.81
2019-04-22T14:31:20.384Z,19.28
2019-04-22T14:34:10.201Z,19.77
2019-04-22T14:36:59.664Z,18.71
2019-04-22T14:39:48.450Z,18.50
2019-04-22T14:42:56.027Z,18.58
2019-04-22T14:46:04.308Z,17.76
2019-04-22T14:48:46.006Z,17.94
2019-04-22T14:51:27.795Z,17.39
2019-04-22T14:54:13.711Z,16.93
2019-04-22T14:56:48.532Z,16.61
2019-04-22T14:59:37.830Z,16.90
2019-04-22T15:02:27.904Z,16.53
2019-04-22T15:05:18.484Z,16.52
2019-04-22T15:08:07.260Z,15.87
2019-04-22T15:10:55.833Z,14.65
2019-04-22T15:13:45.205Z,14.50
2019-04-22T15:17:00.584Z,14.00
2019-04-22T15:20:01.492Z,14.33
2019-04-22T15:22:52.709Z,13.91
2019-04-22T15:25:41.136Z,13.61
2019-04-22T15:28:31.339Z,13.17
2019-04-22T15:31:21.563Z,13.10
2019-04-22T15:34:10.323Z,12.88
2019-04-22T15:37:00.080Z,12.78
2019-04-22T15:39:49.872Z,13.43
2019-04-22T15:42:42.848Z,12.88
2019-04-22T15:45:30.457Z,12.72
2019-04-22T15:48:21.083Z,12.57
2019-04-22T15:51:11.060Z,12.56
2019-04-22T15:54:01.354Z,12.40
2019-04-22T15:56:50.819Z,12.44
2019-04-22T15:59:59.306Z,11.96
2019-04-22T16:02:31.636Z,12.14
2019-04-22T16:05:20.808Z,12.37
2019-04-22T16:08:10.878Z,12.88
2019-04-22T16:11:00.001Z,12.68
2019-04-22T16:13:50.557Z,12.59
2019-04-22T16:16:38.951Z,12.74
2019-04-22T16:19:28.275Z,13.85
2019-04-22T16:22:20.629Z,14.58
2019-04-22T16:25:29.024Z,15.02
2019-04-22T16:28:17.547Z,16.02
2019-04-22T16:31:07.223Z,15.96
2019-04-22T16:33:56.405Z,16.48
2019-04-22T16:36:46.951Z,16.55
2019-04-22T16:39:36.712Z,16.62
2019-04-22T16:42:35.947Z,17.00
2019-04-22T16:45:17.688Z,17.63
2019-04-22T16:48:07.504Z,17.84
2019-04-22T16:50:56.566Z,17.66
2019-04-22T16:53:47.489Z,18.02
2019-04-22T16:56:37.203Z,18.50
2019-04-22T16:59:26.735Z,18.35
2019-04-22T17:02:35.245Z,18.65
2019-04-22T17:05:56.112Z,19.13
2019-04-22T17:08:44.898Z,19.09
2019-04-22T17:11:34.003Z,19.21
2019-04-22T17:14:27.254Z,19.33
2019-04-22T17:17:14.885Z,19.39
2019-04-22T17:20:05.112Z,19.94
2019-04-22T17:22:55.623Z,19.80
2019-04-22T17:25:44.653Z,19.98
2019-04-22T17:28:35.500Z,19.88
2019-04-22T17:31:24.874Z,20.41
2019-04-22T17:34:15.670Z,20.42
2019-04-22T17:37:15.954Z,20.67
2019-04-22T17:40:17.499Z,20.69
2019-04-22T17:43:14.120Z,20.71
2019-04-22T17:46:13.153Z,20.91
2019-04-22T17:49:06.034Z,21.07
2019-04-22T17:52:18.900Z,21.36
2019-04-22T17:55:03.052Z,21.88
2019-04-22T17:57:55.306Z,21.74
2019-04-22T18:00:38.215Z,21.85
2019-04-22T18:03:25.822Z,22.17
2019-04-22T18:06:14.385Z,21.61
2019-04-22T18:09:19.501Z,21.63
2019-04-22T18:12:12.329Z,21.73
2019-04-22T18:15:06.089Z,21.52
2019-04-22T18:17:54.289Z,21.87
2019-04-22T18:20:37.737Z,21.83
2019-04-22T18:23:18.108Z,21.79
2019-04-22T18:26:20.410Z,22.20
2019-04-22T18:29:11.555Z,22.20
2019-04-22T18:31:54.463Z,22.25
2019-04-22T18:34:44.388Z,22.48
2019-04-22T18:37:43.691Z,22.89
2019-04-22T18:40:30.910Z,22.74
2019-04-22T18:43:27.798Z,22.96
2019-04-22T18:46:14.631Z,23.20
2019-04-22T18:49:06.892Z,23.32
2019-04-22T18:52:15.796Z,23.44
2019-04-22T18:55:26.758Z,23.67
2019-04-22T18:58:16.300Z,23.51
2019-04-22T19:00:53.295Z,23.73
2019-04-22T19:03:49.766Z,23.88
2019-04-22T19:06:56.498Z,24.17
2019-04-22T19:10:01.614Z,24.20
2019-04-22T19:12:46.439Z,24.47
2019-04-22T19:15:33.071Z,24.44
2019-04-22T19:18:25.223Z,24.64
2019-04-22T19:21:13.228Z,24.91
2019-04-22T19:23:58.461Z,24.95
2019-04-22T19:29:39.594Z,25.22
2019-04-22T19:32:37.148Z,25.69
2019-04-22T19:35:17.429Z,25.54
2019-04-22T19:37:57.325Z,25.78
2019-04-22T19:41:08.056Z,25.59
2019-04-22T19:43:50.351Z,25.68
2019-04-22T19:46:42.456Z,25.76
2019-04-22T19:49:39.520Z,26.01
2019-04-22T19:52:26.106Z,25.96
2019-04-22T19:55:14.145Z,26.13
2019-04-22T19:58:04.144Z,26.50
2019-04-22T20:01:22.193Z,26.52
2019-04-22T20:07:12.805Z,27.08
2019-04-22T20:10:05.305Z,26.99
2019-04-22T20:12:54.589Z,27.22
2019-04-22T20:15:37.089Z,27.30
2019-04-22T20:18:48.333Z,27.83
2019-04-22T20:21:28.592Z,27.73
2019-04-22T20:24:06.755Z,27.81
2019-04-22T20:27:09.336Z,28.04
2019-04-22T20:29:58.173Z,28.54
2019-04-22T20:32:47.148Z,28.57
2019-04-22T20:35:40.126Z,28.64
2019-04-22T20:38:28.154Z,28.85
2019-04-22T20:41:17.444Z,29.15
2019-04-22T20:44:16.344Z,29.29
2019-04-22T20:47:00.274Z,29.28
2019-04-22T20:49:55.397Z,29.78
2019-04-22T20:52:50.808Z,30.20
2019-04-22T20:55:26.808Z,29.91
2019-04-22T20:58:22.429Z,30.14
2019-04-22T21:01:03.828Z,30.32
2019-04-22T21:03:49.565Z,30.45
2019-04-22T21:06:51.623Z,30.44
2019-04-22T21:09:43.057Z,30.71
2019-04-22T21:12:27.594Z,30.69
2019-04-22T21:15:31.442Z,30.89
2019-04-22T21:18:15.637Z,30.92
2019-04-22T21:21:07.306Z,30.92
2019-04-22T21:23:48.564Z,30.94
2019-04-22T21:26:45.331Z,31.23
2019-04-22T21:29:33.595Z,31.44
2019-04-22T21:32:31.370Z,31.36
2019-04-22T21:35:31.907Z,31.49
2019-04-22T21:38:15.242Z,31.44
2019-04-22T21:40:59.951Z,31.87
2019-04-22T21:43:53.023Z,31.79
2019-04-22T21:46:42.308Z,31.90
2019-04-22T21:49:36.115Z,32.17
2019-04-22T21:52:22.905Z,32.37
2019-04-22T21:55:16.151Z,32.39
2019-04-22T21:58:12.265Z,32.53
2019-04-22T22:01:29.539Z,32.70
2019-04-22T22:04:04.823Z,32.78
2019-04-22T22:06:45.094Z,32.89
2019-04-22T22:09:48.972Z,33.26
2019-04-22T22:12:42.532Z,33.51
2019-04-22T22:15:28.708Z,33.58
2019-04-22T22:18:16.557Z,33.72
2019-04-22T22:21:28.321Z,33.72
2019-04-22T22:24:05.632Z,33.88
2019-04-22T22:26:54.246Z,33.96
2019-04-22T22:29:49.928Z,33.81
2019-04-22T22:32:35.422Z,34.17
2019-04-22T22:35:20.679Z,34.32
2019-04-22T22:38:13.508Z,34.52
2019-04-22T22:40:43.823Z,34.50
2019-04-22T22:43:37.080Z,34.74
2019-04-22T22:46:31.893Z,34.66
2019-04-22T22:49:33.005Z,34.95
2019-04-22T22:52:51.764Z,35.12
2019-04-22T22:55:10.810Z,35.32
2019-04-22T22:58:08.232Z,35.29
2019-04-22T23:00:50.675Z,35.64
2019-04-22T23:03:51.725Z,35.59
2019-04-22T23:06:38.638Z,35.74
2019-04-22T23:09:29.317Z,35.83
2019-04-22T23:12:25.168Z,36.44
2019-04-22T23:15:06.189Z,36.37
2019-04-22T23:17:37.845Z,36.63
2019-04-22T23:20:31.034Z,36.83
2019-04-22T23:26:40.411Z,37.09
2019-04-22T23:29:37.002Z,37.35
2019-04-22T23:32:25.454Z,37.37
2019-04-22T23:35:33.668Z,37.51
2019-04-22T23:38:20.734Z,37.63
2019-04-22T23:41:39.208Z,37.72
2019-04-22T23:44:29.135Z,38.10
2019-04-22T23:47:16.060Z,38.02
2019-04-22T23:50:14.250Z,38.38
2019-04-22T23:53:02.263Z,38.56
2019-04-22T23:55:54.262Z,38.54
2019-04-22T23:58:52.424Z,38.69
